createdAt,value
2023-03-12T00:01:36.437Z,1.10
2023-03-12T00:04:39.312Z,2.13
2023-03-12T00:07:41.413Z,1.30
2023-03-12T00:10:43.427Z,1.60
2023-03-12T00:13:48.916Z,1.48
2023-03-12T00:16:51.215Z,1.33
2023-03-12T00:19:53.864Z,1.35
2023-03-12T00:22:56.238Z,1.40
2023-03-12T00:26:17.829Z,1.48
2023-03-12T00:29:20.430Z,1.75
2023-03-12T00:32:22.578Z,1.60
2023-03-12T00:35:30.344Z,1.50
2023-03-12T00:38:32.865Z,1.50
2023-03-12T00:41:35.044Z,1.63
2023-03-12T00:44:37.268Z,1.45
2023-03-12T00:47:41.820Z,1.50
2023-03-12T00:50:44.216Z,2.30
2023-03-12T00:53:48.438Z,1.23
2023-03-12T00:56:50.784Z,1.23
2023-03-12T00:59:52.914Z,1.70
2023-03-12T01:02:56.927Z,1.95
2023-03-12T01:06:01.936Z,1.90
2023-03-12T01:09:05.972Z,2.15
2023-03-12T01:12:08.422Z,2.05
2023-03-12T01:15:14.084Z,2.13
2023-03-12T01:18:16.612Z,1.67
2023-03-12T01:21:18.749Z,1.63
2023-03-12T01:24:21.006Z,2.10
2023-03-12T01:27:23.290Z,1.98
2023-03-12T01:30:25.734Z,2.20
2023-03-12T01:33:27.922Z,2.20
2023-03-12T01:36:31.056Z,1.52
2023-03-12T01:39:33.149Z,2.55
2023-03-12T01:42:35.195Z,2.15
2023-03-12T01:46:24.524Z,2.03
2023-03-12T01:49:31.791Z,2.17
2023-03-12T01:52:37.853Z,2.20
2023-03-12T01:55:41.845Z,2.00
2023-03-12T01:58:50.826Z,2.42
2023-03-12T02:01:53.193Z,2.05
2023-03-12T02:05:17.775Z,2.45
2023-03-12T02:08:19.958Z,2.05
2023-03-12T02:11:22.039Z,2.03
2023-03-12T02:14:24.354Z,1.52
2023-03-12T02:17:26.835Z,2.33
2023-03-12T02:21:10.098Z,2.03
2023-03-12T02:24:24.827Z,2.50
2023-03-12T02:27:27.011Z,1.80
2023-03-12T02:30:30.772Z,2.72
2023-03-12T02:33:32.930Z,2.08
2023-03-12T02:36:35.395Z,3.50
2023-03-12T02:39:41.524Z,2.28
2023-03-12T02:42:44.957Z,2.17
2023-03-12T02:45:47.158Z,2.70
2023-03-12T02:48:49.852Z,2.35
2023-03-12T02:51:52.522Z,2.25
2023-03-12T02:54:54.642Z,2.30
2023-03-12T02:57:56.876Z,1.73
2023-03-12T03:00:59.102Z,2.25
2023-03-12T03:04:02.895Z,2.25
2023-03-12T03:07:05.244Z,2.55
2023-03-12T03:10:08.123Z,2.33
2023-03-12T03:13:10.260Z,2.35
2023-03-12T03:16:14.027Z,2.08
2023-03-12T03:19:16.492Z,1.73
2023-03-12T03:22:19.800Z,2.22
2023-03-12T03:25:23.385Z,2.10
2023-03-12T03:28:27.672Z,2.20
2023-03-12T03:31:30.722Z,2.60
2023-03-12T03:34:33.725Z,2.08
2023-03-12T03:37:35.964Z,2.17
2023-03-12T03:40:38.172Z,2.20
2023-03-12T03:43:40.358Z,2.03
2023-03-12T03:46:42.533Z,2.17
2023-03-12T03:49:46.530Z,2.03
2023-03-12T03:52:49.931Z,1.45
2023-03-12T03:55:52.018Z,2.78
2023-03-12T03:58:54.443Z,1.90
2023-03-12T04:01:57.385Z,1.85
2023-03-12T04:05:01.126Z,2.55
2023-03-12T04:08:03.717Z,1.80
2023-03-12T04:11:19.071Z,2.38
2023-03-12T04:14:21.253Z,2.50
2023-03-12T04:17:23.564Z,2.42
2023-03-12T04:20:25.671Z,2.45
2023-03-12T04:23:27.975Z,3.08
2023-03-12T04:26:30.945Z,2.50
2023-03-12T04:29:33.475Z,2.80
2023-03-12T04:32:35.798Z,2.78
2023-03-12T04:35:38.230Z,2.08
2023-03-12T04:38:40.462Z,2.83
2023-03-12T04:41:43.147Z,2.20
2023-03-12T04:44:52.613Z,2.45
2023-03-12T04:47:55.098Z,2.72
2023-03-12T04:50:57.385Z,2.72
2023-03-12T04:54:00.905Z,2.53
2023-03-12T04:57:03.209Z,2.17
2023-03-12T05:00:11.189Z,2.38
2023-03-12T05:03:13.535Z,2.92
2023-03-12T05:06:15.593Z,3.15
2023-03-12T05:09:18.135Z,2.90
2023-03-12T05:12:20.320Z,2.33
2023-03-12T05:15:22.698Z,2.25
2023-03-12T05:18:26.562Z,2.88
2023-03-12T05:21:30.564Z,2.78
2023-03-12T05:24:32.906Z,2.60
2023-03-12T05:27:36.776Z,1.88
2023-03-12T05:30:40.415Z,2.80
2023-03-12T05:33:43.668Z,2.70
2023-03-12T05:36:46.103Z,2.53
2023-03-12T05:39:54.252Z,2.83
2023-03-12T05:42:56.801Z,3.22
2023-03-12T05:46:04.106Z,2.50
2023-03-12T05:49:07.721Z,2.45
2023-03-12T05:52:10.528Z,2.50
2023-03-12T05:55:12.697Z,2.60
2023-03-12T05:58:14.762Z,2.40
2023-03-12T06:01:24.120Z,2.80
2023-03-12T06:04:27.299Z,1.75
2023-03-12T06:07:29.497Z,1.98
2023-03-12T06:10:31.879Z,1.90
2023-03-12T06:13:34.292Z,2.38
2023-03-12T06:16:37.264Z,2.40
2023-03-12T06:19:39.619Z,2.10
2023-03-12T06:22:42.736Z,1.90
2023-03-12T06:25:45.456Z,1.40
2023-03-12T06:28:49.139Z,0.85
2023-03-12T06:31:52.458Z,0.50
2023-03-12T06:34:54.546Z,1.13
2023-03-12T06:37:56.654Z,0.95
2023-03-12T06:41:04.118Z,1.90
2023-03-12T06:44:06.647Z,1.30
2023-03-12T06:47:09.927Z,1.48
2023-03-12T06:50:12.120Z,1.60
2023-03-12T06:53:14.181Z,1.52
2023-03-12T06:56:16.199Z,1.50
2023-03-12T06:59:18.620Z,1.42
2023-03-12T07:02:20.815Z,1.50
2023-03-12T07:05:24.116Z,1.83
2023-03-12T07:08:31.042Z,1.33
2023-03-12T07:11:33.086Z,1.75
2023-03-12T07:14:35.085Z,1.95
2023-03-12T07:17:37.199Z,1.90
2023-03-12T07:20:41.542Z,1.55
2023-03-12T07:23:43.569Z,1.50
2023-03-12T07:26:46.190Z,1.33
2023-03-12T07:29:48.589Z,1.73
2023-03-12T07:32:50.785Z,1.70
2023-03-12T07:35:53.062Z,2.60
2023-03-12T07:38:55.667Z,1.48
2023-03-12T07:41:57.784Z,2.42
2023-03-12T07:45:00.309Z,2.17
2023-03-12T07:48:02.357Z,2.60
2023-03-12T07:51:05.190Z,2.00
2023-03-12T07:54:07.232Z,2.00
2023-03-12T07:57:09.401Z,1.65
2023-03-12T08:00:12.400Z,2.40
2023-03-12T08:03:14.847Z,1.85
2023-03-12T08:06:17.063Z,1.73
2023-03-12T08:09:19.128Z,1.88
2023-03-12T08:12:21.120Z,1.92
2023-03-12T08:15:25.517Z,1.83
2023-03-12T08:18:27.919Z,2.40
2023-03-12T08:21:30.109Z,2.42
2023-03-12T08:24:32.152Z,1.90
2023-03-12T08:27:34.233Z,2.03
2023-03-12T08:30:36.456Z,1.83
2023-03-12T08:33:41.286Z,2.40
2023-03-12T08:36:43.259Z,2.25
2023-03-12T08:39:45.349Z,2.30
2023-03-12T08:42:47.449Z,2.45
2023-03-12T08:46:00.809Z,2.50
2023-03-12T08:49:02.901Z,2.13
2023-03-12T08:52:05.445Z,2.28
2023-03-12T08:55:08.113Z,2.22
2023-03-12T08:58:10.152Z,2.05
2023-03-12T09:01:13.802Z,1.63
2023-03-12T09:04:17.133Z,2.35
2023-03-12T09:07:19.229Z,1.95
2023-03-12T09:10:21.341Z,2.30
2023-03-12T09:13:23.426Z,1.70
2023-03-12T09:16:25.505Z,2.13
2023-03-12T09:19:27.532Z,3.15
2023-03-12T09:22:30.651Z,1.55
2023-03-12T09:25:33.377Z,1.60
2023-03-12T09:28:35.458Z,1.95
2023-03-12T09:31:37.568Z,2.45
2023-03-12T09:34:39.663Z,2.10
2023-03-12T09:37:41.983Z,1.98
2023-03-12T09:40:47.745Z,2.50
2023-03-12T09:43:53.066Z,2.00
2023-03-12T09:47:01.310Z,2.65
2023-03-12T09:50:17.157Z,1.40
2023-03-12T09:53:28.491Z,2.28
2023-03-12T09:56:30.558Z,2.00
2023-03-12T09:59:37.147Z,1.77
2023-03-12T10:02:51.765Z,1.38
2023-03-12T10:06:29.850Z,3.22
2023-03-12T10:09:37.767Z,1.92
2023-03-12T10:13:04.554Z,1.98
2023-03-12T10:16:49.793Z,2.03
2023-03-12T10:20:16.580Z,2.15
2023-03-12T10:23:37.198Z,2.25
2023-03-12T10:26:44.206Z,2.28
2023-03-12T10:29:51.000Z,2.10
2023-03-12T10:32:59.356Z,1.85
2023-03-12T10:36:01.672Z,1.80
2023-03-12T10:39:04.646Z,1.85
2023-03-12T10:42:16.615Z,1.80
2023-03-12T10:46:04.539Z,1.73
2023-03-12T10:49:22.009Z,2.13
2023-03-12T10:52:24.136Z,1.70
2023-03-12T10:55:29.800Z,2.00
2023-03-12T10:58:43.968Z,2.03
2023-03-12T11:01:50.234Z,1.80
2023-03-12T11:04:55.509Z,2.42
2023-03-12T11:08:00.581Z,2.20
2023-03-12T11:11:05.479Z,1.50
2023-03-12T11:14:16.412Z,1.40
2023-03-12T11:17:27.829Z,1.70
2023-03-12T11:20:30.980Z,2.00
2023-03-12T11:23:33.754Z,1.58
2023-03-12T11:27:14.403Z,2.08
2023-03-12T11:30:40.831Z,1.40
2023-03-12T11:33:42.991Z,1.60
2023-03-12T11:36:47.980Z,1.15
2023-03-12T11:40:10.166Z,1.55
2023-03-12T11:44:09.166Z,2.55
2023-03-12T11:47:14.200Z,1.83
2023-03-12T11:50:45.888Z,2.03
2023-03-12T11:54:06.620Z,1.88
2023-03-12T11:57:15.549Z,1.85
2023-03-12T12:00:35.101Z,1.83
2023-03-12T12:03:49.114Z,1.90
2023-03-12T12:07:05.294Z,2.20
2023-03-12T12:10:30.599Z,2.10
2023-03-12T12:13:46.830Z,1.67
2023-03-12T12:17:01.127Z,1.83
2023-03-12T12:20:29.052Z,1.85
2023-03-12T12:24:17.699Z,1.88
2023-03-12T12:27:27.524Z,1.90
2023-03-12T13:13:20.972Z,1.52
2023-03-12T13:16:40.206Z,1.50
2023-03-12T13:23:05.164Z,1.40
2023-03-12T13:26:11.995Z,1.40
2023-03-12T13:29:19.963Z,1.27
2023-03-12T13:32:34.637Z,1.17
2023-03-12T13:35:39.538Z,1.42
2023-03-12T13:38:53.783Z,1.02
2023-03-12T13:41:57.042Z,1.50
2023-03-12T13:45:22.233Z,1.25
2023-03-12T13:48:25.571Z,1.48
2023-03-12T13:51:28.310Z,1.02
2023-03-12T13:54:34.555Z,1.70
2023-03-12T13:57:50.518Z,1.60
2023-03-12T14:01:01.308Z,1.60
2023-03-12T14:04:12.642Z,1.83
2023-03-12T14:07:30.643Z,1.48
2023-03-12T14:10:41.896Z,1.50
2023-03-12T14:13:51.355Z,0.80
2023-03-12T14:17:01.575Z,1.38
2023-03-12T14:20:26.828Z,1.00
2023-03-12T14:23:35.122Z,1.10
2023-03-12T14:26:37.408Z,1.00
2023-03-12T14:29:43.966Z,0.70
2023-03-12T14:32:48.320Z,1.40
2023-03-12T14:35:56.646Z,1.63
2023-03-12T14:39:10.505Z,1.80
2023-03-12T14:42:31.989Z,1.08
2023-03-12T14:45:40.618Z,1.20
2023-03-12T14:48:43.017Z,1.60
2023-03-12T14:51:45.172Z,1.55
2023-03-12T14:54:56.429Z,1.30
2023-03-12T14:58:17.354Z,1.38
2023-03-12T15:01:30.128Z,1.77
2023-03-12T15:04:34.900Z,0.93
2023-03-12T15:07:39.747Z,1.45
2023-03-12T15:10:51.960Z,1.30
2023-03-12T15:13:56.000Z,1.90
2023-03-12T15:17:00.402Z,1.67
2023-03-12T15:20:10.701Z,1.20
2023-03-12T15:23:14.285Z,1.75
2023-03-12T15:26:29.082Z,1.15
2023-03-12T15:29:31.224Z,1.00
2023-03-12T15:32:33.571Z,1.08
2023-03-12T15:35:39.601Z,1.83
2023-03-12T15:39:15.619Z,1.13
2023-03-12T15:42:21.790Z,1.23
2023-03-12T15:45:46.020Z,1.70
2023-03-12T15:48:53.903Z,1.95
2023-03-12T15:52:02.257Z,1.40
2023-03-12T15:55:07.310Z,1.70
2023-03-12T15:58:41.004Z,2.55
2023-03-12T16:01:53.033Z,2.75
2023-03-12T16:04:55.296Z,2.90
2023-03-12T16:07:59.347Z,3.15
2023-03-12T16:11:02.080Z,3.25
2023-03-12T16:14:10.890Z,2.58
2023-03-12T16:17:17.944Z,2.95
2023-03-12T16:20:20.196Z,3.00
2023-03-12T16:23:23.206Z,3.90
2023-03-12T16:26:25.215Z,3.78
2023-03-12T16:29:35.940Z,3.17
2023-03-12T16:32:38.467Z,2.55
2023-03-12T16:35:40.746Z,4.40
2023-03-12T16:38:44.204Z,7.18
2023-03-12T16:41:47.179Z,5.82
2023-03-12T16:44:49.278Z,6.30
2023-03-12T16:47:58.032Z,6.03
2023-03-12T16:54:11.417Z,8.27
2023-03-12T16:57:41.171Z,10.20
2023-03-12T17:00:43.984Z,10.15
2023-03-12T17:03:49.675Z,8.88
2023-03-12T17:06:51.910Z,8.38
2023-03-12T17:09:54.147Z,8.18
2023-03-12T17:12:56.835Z,8.02
2023-03-12T17:15:58.948Z,7.35
2023-03-12T17:19:01.118Z,7.55
2023-03-12T17:22:04.463Z,7.13
2023-03-12T17:25:07.828Z,6.63
2023-03-12T17:28:11.873Z,6.18
2023-03-12T17:31:16.929Z,8.35
2023-03-12T17:34:19.441Z,11.25
2023-03-12T17:37:23.725Z,11.60
2023-03-12T17:40:27.112Z,11.25
2023-03-12T17:43:29.649Z,10.07
2023-03-12T17:46:31.978Z,8.18
2023-03-12T17:49:34.200Z,10.88
2023-03-12T17:52:36.711Z,11.35
2023-03-12T17:55:38.697Z,13.20
2023-03-12T17:58:40.724Z,15.50
2023-03-12T18:01:42.966Z,13.60
2023-03-12T18:04:45.038Z,15.13
2023-03-12T18:07:48.519Z,18.02
2023-03-12T18:10:50.580Z,16.30
2023-03-12T18:13:53.439Z,16.63
2023-03-12T18:16:55.579Z,16.58
2023-03-12T18:19:57.662Z,14.80
2023-03-12T18:23:00.173Z,17.85
2023-03-12T18:26:04.733Z,16.52
2023-03-12T18:29:06.692Z,15.05
2023-03-12T18:32:09.463Z,15.00
2023-03-12T18:35:13.969Z,15.15
2023-03-12T18:38:16.187Z,15.65
2023-03-12T18:41:18.192Z,14.60
2023-03-12T18:44:20.290Z,13.18
2023-03-12T18:47:23.297Z,12.00
2023-03-12T18:50:25.644Z,11.20
2023-03-12T18:53:29.338Z,12.57
2023-03-12T18:56:31.434Z,12.13
2023-03-12T18:59:33.502Z,12.45
2023-03-12T19:02:35.609Z,12.98
2023-03-12T19:05:37.993Z,13.40
2023-03-12T19:08:40.535Z,11.07
2023-03-12T19:11:42.613Z,12.85
2023-03-12T19:14:44.672Z,12.63
2023-03-12T19:17:46.806Z,12.75
2023-03-12T19:20:48.980Z,12.07
2023-03-12T19:23:52.210Z,13.50
2023-03-12T19:26:54.351Z,11.90
2023-03-12T19:29:59.208Z,11.95
2023-03-12T19:33:01.332Z,13.20
2023-03-12T19:36:06.258Z,13.05
2023-03-12T19:39:15.198Z,13.57
2023-03-12T19:42:22.364Z,13.50
2023-03-12T19:45:24.620Z,13.48
2023-03-12T19:48:27.012Z,14.25
2023-03-12T19:51:29.471Z,13.85
2023-03-12T19:54:31.631Z,15.77
2023-03-12T19:57:34.403Z,14.90
2023-03-12T20:00:37.995Z,15.35
2023-03-12T20:03:45.040Z,14.25
2023-03-12T20:06:47.727Z,14.38
2023-03-12T20:09:50.222Z,13.45
2023-03-12T20:12:55.642Z,16.13
2023-03-12T20:15:57.863Z,15.93
2023-03-12T20:19:00.297Z,17.45
2023-03-12T20:22:02.489Z,17.10
2023-03-12T20:25:06.399Z,17.60
2023-03-12T20:28:10.942Z,16.73
2023-03-12T20:31:16.549Z,17.67
2023-03-12T20:34:18.732Z,18.42
2023-03-12T20:37:22.504Z,15.82
2023-03-12T20:40:24.625Z,19.30
2023-03-12T20:43:27.053Z,19.98
2023-03-12T20:46:29.237Z,17.95
2023-03-12T20:49:31.407Z,18.95
2023-03-12T20:52:33.958Z,19.30
2023-03-12T20:55:38.996Z,17.73
2023-03-12T20:58:46.125Z,19.42
2023-03-12T21:01:48.126Z,19.15
2023-03-12T21:04:53.015Z,19.35
2023-03-12T21:07:58.371Z,19.33
2023-03-12T21:11:00.627Z,21.30
2023-03-12T21:14:02.634Z,20.92
2023-03-12T21:17:04.935Z,21.75
2023-03-12T21:20:17.183Z,18.42
2023-03-12T21:23:19.982Z,19.42
2023-03-12T21:26:23.045Z,21.08
2023-03-12T21:29:25.262Z,18.83
2023-03-12T21:32:27.798Z,20.45
2023-03-12T21:35:30.062Z,19.83
2023-03-12T21:38:32.292Z,20.25
2023-03-12T21:41:34.291Z,17.63
2023-03-12T21:44:37.252Z,21.20
2023-03-12T21:47:41.720Z,18.17
2023-03-12T21:50:43.816Z,20.00
2023-03-12T21:53:45.961Z,18.90
2023-03-12T21:56:47.945Z,19.35
2023-03-12T21:59:50.012Z,18.63
2023-03-12T22:02:53.023Z,19.73
2023-03-12T22:05:55.343Z,18.30
2023-03-12T22:08:57.645Z,18.88
2023-03-12T22:12:01.675Z,19.73
2023-03-12T22:15:04.582Z,18.55
2023-03-12T22:18:06.715Z,20.00
2023-03-12T22:21:13.636Z,13.07
2023-03-12T22:24:15.748Z,9.80
2023-03-12T22:27:17.870Z,10.23
2023-03-12T22:30:20.148Z,9.90
2023-03-12T22:33:22.379Z,9.13
2023-03-12T22:36:24.624Z,8.60
2023-03-12T22:39:26.732Z,9.68
2023-03-12T22:42:28.801Z,10.18
2023-03-12T22:45:31.060Z,10.73
2023-03-12T22:48:33.333Z,8.73
2023-03-12T22:51:35.387Z,10.07
2023-03-12T22:54:37.466Z,10.90
2023-03-12T22:57:39.507Z,9.60
2023-03-12T23:00:41.636Z,9.50
2023-03-12T23:03:45.385Z,9.45
2023-03-12T23:06:47.371Z,9.57
2023-03-12T23:09:49.879Z,11.60
2023-03-12T23:12:51.803Z,15.68
2023-03-12T23:15:53.923Z,19.17
2023-03-12T23:18:56.708Z,17.75
2023-03-12T23:21:58.853Z,17.02
2023-03-12T23:25:01.006Z,15.80
2023-03-12T23:28:03.623Z,15.63
2023-03-12T23:31:07.700Z,13.90
2023-03-12T23:34:10.089Z,13.73
2023-03-12T23:37:12.301Z,13.85
2023-03-12T23:40:16.965Z,11.68
2023-03-12T23:43:19.354Z,13.27
2023-03-12T23:46:21.624Z,11.57
2023-03-12T23:49:23.710Z,11.65
2023-03-12T23:52:28.641Z,12.30
2023-03-12T23:55:30.928Z,11.68
2023-03-12T23:58:33.248Z,12.60
